ETIH

Hohenfels Army Air Field Airport

Germany
METAR ETIH 231556Z AUTO 06009G18KT 9999 CLR M01/M06 A3002 RMK AO2 SLP198 T10101062 $
Observed Flight Rules
Feb-23 @ 15:56 UTC (43 minutes ago) Visual Flight Rules
Wind Visibility Clouds
60° at 9 knots
 Gusting to 18 knots
10,000+ meters
  • Clear skies
Temperatures Readings
Current -1°C / 30°F
Dewpoint -6°C / 21°F
Humidity 69%
Altimeter 30.02" Hg
Pressure 1019.8 hPa
Elevation 442
METAR ETIH 231556Z AUTO 06009G18KT 9999 CLR M01/M06 A3002 RMK AO2 SLP198 T10101062 $
Observed Flight Rules
Feb-23 @ 15:56 UTC
(43 minutes ago)
VFR
Wind Visibility
60° at 9 knots
 Gusting to 18 knots
10,000+ meters
Clouds
  • Clear skies
Temperature Dewpoint
-1°C / 30°F -6°C / 21°F
Humidity Altimeter Pressure
69% 30.02" Hg 1019.8 hPa